sensor_id;sensor_type;location;lat;lon;timestamp;P1;durP1;ratioP1;P2;durP2;ratioP2
53549;SDS011;73079;52.914;-0.982;2023-11-18T00:02:24;21.38;;;6.63;;
53549;SDS011;73079;52.914;-0.982;2023-11-18T00:04:51;19.13;;;7.13;;
53549;SDS011;73079;52.914;-0.982;2023-11-18T00:07:17;24.15;;;6.75;;
53549;SDS011;73079;52.914;-0.982;2023-11-18T00:09:43;21.35;;;6.55;;
53549;SDS011;73079;52.914;-0.982;2023-11-18T00:12:12;22.88;;;7.28;;
53549;SDS011;73079;52.914;-0.982;2023-11-18T00:14:39;19.67;;;6.20;;
53549;SDS011;73079;52.914;-0.982;2023-11-18T00:17:08;20.20;;;6.18;;
53549;SDS011;73079;52.914;-0.982;2023-11-18T00:19:35;20.02;;;5.38;;
53549;SDS011;73079;52.914;-0.982;2023-11-18T00:22:01;14.02;;;5.22;;
53549;SDS011;73079;52.914;-0.982;2023-11-18T00:24:28;20.98;;;5.88;;
53549;SDS011;73079;52.914;-0.982;2023-11-18T00:26:54;15.80;;;5.35;;
53549;SDS011;73079;52.914;-0.982;2023-11-18T00:29:25;19.75;;;5.40;;
53549;SDS011;73079;52.914;-0.982;2023-11-18T00:31:51;17.23;;;5.10;;
53549;SDS011;73079;52.914;-0.982;2023-11-18T00:34:17;17.38;;;4.47;;
53549;SDS011;73079;52.914;-0.982;2023-11-18T00:36:44;16.00;;;4.55;;
53549;SDS011;73079;52.914;-0.982;2023-11-18T00:39:10;20.00;;;4.88;;
53549;SDS011;73079;52.914;-0.982;2023-11-18T00:41:36;18.20;;;4.20;;
53549;SDS011;73079;52.914;-0.982;2023-11-18T00:44:03;14.80;;;4.43;;
53549;SDS011;73079;52.914;-0.982;2023-11-18T00:46:30;12.88;;;4.00;;
53549;SDS011;73079;52.914;-0.982;2023-11-18T00:48:57;11.73;;;3.28;;
53549;SDS011;73079;52.914;-0.982;2023-11-18T00:51:23;14.63;;;3.92;;
53549;SDS011;73079;52.914;-0.982;2023-11-18T00:53:50;15.88;;;4.15;;
53549;SDS011;73079;52.914;-0.982;2023-11-18T00:56:20;18.88;;;3.83;;
53549;SDS011;73079;52.914;-0.982;2023-11-18T00:58:47;14.50;;;3.65;;
53549;SDS011;73079;52.914;-0.982;2023-11-18T01:01:13;10.07;;;3.72;;
53549;SDS011;73079;52.914;-0.982;2023-11-18T01:03:44;14.07;;;3.78;;
53549;SDS011;73079;52.914;-0.982;2023-11-18T01:06:11;14.80;;;4.15;;
53549;SDS011;73079;52.914;-0.982;2023-11-18T01:08:38;16.02;;;4.03;;
53549;SDS011;73079;52.914;-0.982;2023-11-18T01:11:06;13.27;;;3.90;;
53549;SDS011;73079;52.914;-0.982;2023-11-18T01:13:34;14.02;;;3.75;;
53549;SDS011;73079;52.914;-0.982;2023-11-18T01:16:00;11.18;;;3.63;;
53549;SDS011;73079;52.914;-0.982;2023-11-18T01:18:27;15.82;;;4.07;;
53549;SDS011;73079;52.914;-0.982;2023-11-18T01:20:55;13.55;;;4.28;;
53549;SDS011;73079;52.914;-0.982;2023-11-18T01:23:21;15.18;;;3.72;;
53549;SDS011;73079;52.914;-0.982;2023-11-18T01:25:47;15.60;;;3.90;;
53549;SDS011;73079;52.914;-0.982;2023-11-18T01:28:16;14.32;;;3.92;;
53549;SDS011;73079;52.914;-0.982;2023-11-18T01:30:43;14.38;;;3.90;;
53549;SDS011;73079;52.914;-0.982;2023-11-18T01:33:11;13.68;;;3.88;;
53549;SDS011;73079;52.914;-0.982;2023-11-18T01:35:40;13.75;;;3.95;;
53549;SDS011;73079;52.914;-0.982;2023-11-18T01:38:07;15.95;;;4.15;;
53549;SDS011;73079;52.914;-0.982;2023-11-18T01:40:34;16.08;;;4.15;;
53549;SDS011;73079;52.914;-0.982;2023-11-18T01:43:00;15.93;;;3.75;;
53549;SDS011;73079;52.914;-0.982;2023-11-18T01:45:26;18.10;;;3.70;;
53549;SDS011;73079;52.914;-0.982;2023-11-18T01:47:52;11.77;;;3.78;;
53549;SDS011;73079;52.914;-0.982;2023-11-18T01:50:22;12.77;;;3.97;;
53549;SDS011;73079;52.914;-0.982;2023-11-18T01:52:47;16.35;;;3.85;;
53549;SDS011;73079;52.914;-0.982;2023-11-18T01:55:15;13.77;;;3.88;;
53549;SDS011;73079;52.914;-0.982;2023-11-18T01:57:42;12.77;;;3.70;;
53549;SDS011;73079;52.914;-0.982;2023-11-18T02:00:11;13.10;;;4.28;;
53549;SDS011;73079;52.914;-0.982;2023-11-18T02:02:41;13.07;;;3.78;;
53549;SDS011;73079;52.914;-0.982;2023-11-18T02:05:09;16.45;;;3.53;;
53549;SDS011;73079;52.914;-0.982;2023-11-18T02:07:38;11.05;;;3.47;;
53549;SDS011;73079;52.914;-0.982;2023-11-18T02:10:06;16.08;;;3.55;;
53549;SDS011;73079;52.914;-0.982;2023-11-18T02:12:37;12.15;;;3.00;;
53549;SDS011;73079;52.914;-0.982;2023-11-18T02:15:08;11.70;;;3.65;;
53549;SDS011;73079;52.914;-0.982;2023-11-18T02:17:38;11.25;;;3.53;;
53549;SDS011;73079;52.914;-0.982;2023-11-18T02:20:08;14.52;;;3.38;;
53549;SDS011;73079;52.914;-0.982;2023-11-18T02:22:40;11.18;;;3.30;;
53549;SDS011;73079;52.914;-0.982;2023-11-18T02:25:06;12.77;;;3.30;;
53549;SDS011;73079;52.914;-0.982;2023-11-18T02:27:37;13.02;;;3.17;;
53549;SDS011;73079;52.914;-0.982;2023-11-18T02:30:03;11.05;;;3.63;;
53549;SDS011;73079;52.914;-0.982;2023-11-18T02:32:33;8.13;;;2.80;;
53549;SDS011;73079;52.914;-0.982;2023-11-18T02:35:05;9.98;;;3.50;;
53549;SDS011;73079;52.914;-0.982;2023-11-18T02:37:35;10.85;;;3.40;;
53549;SDS011;73079;52.914;-0.982;2023-11-18T02:40:04;12.55;;;3.85;;
53549;SDS011;73079;52.914;-0.982;2023-11-18T02:42:41;6.68;;;3.03;;
53549;SDS011;73079;52.914;-0.982;2023-11-18T02:45:09;7.28;;;3.58;;
53549;SDS011;73079;52.914;-0.982;2023-11-18T02:47:42;11.40;;;3.50;;
53549;SDS011;73079;52.914;-0.982;2023-11-18T02:50:09;9.00;;;3.85;;
53549;SDS011;73079;52.914;-0.982;2023-11-18T02:52:36;11.90;;;3.95;;
53549;SDS011;73079;52.914;-0.982;2023-11-18T02:55:03;10.43;;;3.88;;
53549;SDS011;73079;52.914;-0.982;2023-11-18T02:57:32;12.43;;;4.20;;
53549;SDS011;73079;52.914;-0.982;2023-11-18T02:59:59;10.98;;;3.72;;
53549;SDS011;73079;52.914;-0.982;2023-11-18T03:02:25;7.68;;;3.10;;
53549;SDS011;73079;52.914;-0.982;2023-11-18T03:04:52;11.82;;;4.30;;
53549;SDS011;73079;52.914;-0.982;2023-11-18T03:07:19;8.35;;;3.28;;
53549;SDS011;73079;52.914;-0.982;2023-11-18T03:09:46;13.23;;;4.47;;
53549;SDS011;73079;52.914;-0.982;2023-11-18T03:12:15;10.75;;;3.67;;
53549;SDS011;73079;52.914;-0.982;2023-11-18T03:14:43;8.23;;;3.42;;
53549;SDS011;73079;52.914;-0.982;2023-11-18T03:17:14;11.73;;;4.00;;
53549;SDS011;73079;52.914;-0.982;2023-11-18T03:19:45;12.70;;;3.65;;
53549;SDS011;73079;52.914;-0.982;2023-11-18T03:22:12;9.30;;;3.72;;
53549;SDS011;73079;52.914;-0.982;2023-11-18T03:24:38;10.77;;;3.53;;
53549;SDS011;73079;52.914;-0.982;2023-11-18T03:27:05;10.93;;;4.00;;
53549;SDS011;73079;52.914;-0.982;2023-11-18T03:29:31;9.13;;;3.70;;
53549;SDS011;73079;52.914;-0.982;2023-11-18T03:31:58;8.95;;;3.85;;
53549;SDS011;73079;52.914;-0.982;2023-11-18T03:34:25;10.45;;;3.70;;
53549;SDS011;73079;52.914;-0.982;2023-11-18T03:36:52;10.77;;;4.20;;
53549;SDS011;73079;52.914;-0.982;2023-11-18T03:39:19;13.63;;;4.75;;
53549;SDS011;73079;52.914;-0.982;2023-11-18T03:41:45;8.90;;;3.70;;
53549;SDS011;73079;52.914;-0.982;2023-11-18T03:44:11;8.57;;;3.40;;
53549;SDS011;73079;52.914;-0.982;2023-11-18T03:46:37;8.32;;;3.95;;
53549;SDS011;73079;52.914;-0.982;2023-11-18T03:49:06;6.47;;;3.22;;
53549;SDS011;73079;52.914;-0.982;2023-11-18T03:51:34;9.10;;;4.38;;
53549;SDS011;73079;52.914;-0.982;2023-11-18T03:54:00;6.63;;;3.53;;
53549;SDS011;73079;52.914;-0.982;2023-11-18T03:56:26;6.72;;;3.25;;
53549;SDS011;73079;52.914;-0.982;2023-11-18T03:58:55;5.88;;;3.00;;
53549;SDS011;73079;52.914;-0.982;2023-11-18T04:01:21;7.93;;;3.47;;
53549;SDS011;73079;52.914;-0.982;2023-11-18T04:03:48;8.13;;;3.42;;
53549;SDS011;73079;52.914;-0.982;2023-11-18T04:06:17;7.35;;;3.08;;
53549;SDS011;73079;52.914;-0.982;2023-11-18T04:08:45;8.23;;;3.20;;
53549;SDS011;73079;52.914;-0.982;2023-11-18T04:11:12;7.18;;;2.60;;
53549;SDS011;73079;52.914;-0.982;2023-11-18T04:13:39;5.47;;;2.78;;
53549;SDS011;73079;52.914;-0.982;2023-11-18T04:16:06;6.10;;;2.70;;
53549;SDS011;73079;52.914;-0.982;2023-11-18T04:18:35;6.75;;;2.70;;
53549;SDS011;73079;52.914;-0.982;2023-11-18T04:21:01;4.80;;;2.30;;
53549;SDS011;73079;52.914;-0.982;2023-11-18T04:23:26;3.95;;;2.63;;
53549;SDS011;73079;52.914;-0.982;2023-11-18T04:25:54;2.92;;;2.40;;
53549;SDS011;73079;52.914;-0.982;2023-11-18T04:28:20;5.05;;;2.50;;
53549;SDS011;73079;52.914;-0.982;2023-11-18T04:30:46;3.80;;;2.03;;
53549;SDS011;73079;52.914;-0.982;2023-11-18T04:33:12;4.63;;;2.55;;
53549;SDS011;73079;52.914;-0.982;2023-11-18T04:35:39;5.05;;;2.85;;
53549;SDS011;73079;52.914;-0.982;2023-11-18T04:38:05;2.72;;;1.92;;
53549;SDS011;73079;52.914;-0.982;2023-11-18T04:40:31;2.63;;;2.08;;
53549;SDS011;73079;52.914;-0.982;2023-11-18T04:42:58;4.65;;;2.20;;
53549;SDS011;73079;52.914;-0.982;2023-11-18T04:45:26;3.70;;;2.28;;
53549;SDS011;73079;52.914;-0.982;2023-11-18T04:47:51;4.53;;;2.40;;
53549;SDS011;73079;52.914;-0.982;2023-11-18T04:50:19;5.05;;;2.60;;
53549;SDS011;73079;52.914;-0.982;2023-11-18T04:52:45;6.40;;;2.35;;
53549;SDS011;73079;52.914;-0.982;2023-11-18T04:55:11;4.78;;;2.40;;
53549;SDS011;73079;52.914;-0.982;2023-11-18T04:57:38;3.80;;;2.00;;
53549;SDS011;73079;52.914;-0.982;2023-11-18T05:00:07;4.93;;;2.60;;
53549;SDS011;73079;52.914;-0.982;2023-11-18T05:02:37;3.33;;;2.50;;
53549;SDS011;73079;52.914;-0.982;2023-11-18T05:05:03;3.50;;;2.50;;
53549;SDS011;73079;52.914;-0.982;2023-11-18T05:07:32;2.83;;;2.42;;
53549;SDS011;73079;52.914;-0.982;2023-11-18T05:10:00;2.83;;;2.40;;
53549;SDS011;73079;52.914;-0.982;2023-11-18T05:12:26;2.72;;;2.50;;
53549;SDS011;73079;52.914;-0.982;2023-11-18T05:14:54;4.10;;;2.67;;
53549;SDS011;73079;52.914;-0.982;2023-11-18T05:17:22;3.15;;;2.60;;
53549;SDS011;73079;52.914;-0.982;2023-11-18T05:19:48;2.72;;;2.28;;
53549;SDS011;73079;52.914;-0.982;2023-11-18T05:22:14;3.33;;;2.55;;
53549;SDS011;73079;52.914;-0.982;2023-11-18T05:24:41;3.55;;;2.45;;
53549;SDS011;73079;52.914;-0.982;2023-11-18T05:27:06;3.60;;;2.30;;
53549;SDS011;73079;52.914;-0.982;2023-11-18T05:29:32;1.63;;;1.50;;
53549;SDS011;73079;52.914;-0.982;2023-11-18T05:31:59;1.60;;;1.50;;
53549;SDS011;73079;52.914;-0.982;2023-11-18T05:34:26;2.10;;;1.90;;
53549;SDS011;73079;52.914;-0.982;2023-11-18T05:36:52;2.60;;;1.90;;
53549;SDS011;73079;52.914;-0.982;2023-11-18T05:39:19;2.88;;;1.70;;
53549;SDS011;73079;52.914;-0.982;2023-11-18T05:41:46;1.70;;;1.60;;
53549;SDS011;73079;52.914;-0.982;2023-11-18T05:44:15;2.60;;;2.30;;
53549;SDS011;73079;52.914;-0.982;2023-11-18T05:46:45;3.22;;;2.65;;
53549;SDS011;73079;52.914;-0.982;2023-11-18T05:49:17;2.72;;;2.53;;
53549;SDS011;73079;52.914;-0.982;2023-11-18T05:51:45;3.15;;;2.80;;
53549;SDS011;73079;52.914;-0.982;2023-11-18T05:54:11;3.63;;;3.13;;
53549;SDS011;73079;52.914;-0.982;2023-11-18T05:56:37;3.55;;;3.00;;
53549;SDS011;73079;52.914;-0.982;2023-11-18T05:59:06;3.92;;;2.85;;
53549;SDS011;73079;52.914;-0.982;2023-11-18T06:01:33;3.92;;;2.70;;
53549;SDS011;73079;52.914;-0.982;2023-11-18T06:03:59;3.00;;;2.70;;
53549;SDS011;73079;52.914;-0.982;2023-11-18T06:06:26;4.95;;;2.67;;
53549;SDS011;73079;52.914;-0.982;2023-11-18T06:08:53;2.17;;;1.98;;
53549;SDS011;73079;52.914;-0.982;2023-11-18T06:11:19;4.80;;;2.55;;
53549;SDS011;73079;52.914;-0.982;2023-11-18T06:13:46;3.05;;;2.10;;
53549;SDS011;73079;52.914;-0.982;2023-11-18T06:16:12;3.30;;;2.15;;
53549;SDS011;73079;52.914;-0.982;2023-11-18T06:18:40;2.35;;;2.05;;
53549;SDS011;73079;52.914;-0.982;2023-11-18T06:21:09;3.67;;;1.92;;
53549;SDS011;73079;52.914;-0.982;2023-11-18T06:23:36;2.00;;;1.90;;
53549;SDS011;73079;52.914;-0.982;2023-11-18T06:26:03;2.22;;;1.90;;
53549;SDS011;73079;52.914;-0.982;2023-11-18T06:28:30;1.45;;;1.35;;
53549;SDS011;73079;52.914;-0.982;2023-11-18T06:30:56;1.95;;;1.58;;
53549;SDS011;73079;52.914;-0.982;2023-11-18T06:33:22;1.40;;;1.30;;
53549;SDS011;73079;52.914;-0.982;2023-11-18T06:35:48;1.45;;;1.30;;
53549;SDS011;73079;52.914;-0.982;2023-11-18T06:38:15;2.15;;;1.45;;
53549;SDS011;73079;52.914;-0.982;2023-11-18T06:40:44;1.20;;;1.05;;
53549;SDS011;73079;52.914;-0.982;2023-11-18T06:43:12;1.92;;;1.40;;
53549;SDS011;73079;52.914;-0.982;2023-11-18T06:45:42;2.35;;;1.40;;
53549;SDS011;73079;52.914;-0.982;2023-11-18T06:48:08;1.83;;;1.48;;
53549;SDS011;73079;52.914;-0.982;2023-11-18T06:50:34;1.33;;;1.23;;
53549;SDS011;73079;52.914;-0.982;2023-11-18T06:53:01;1.50;;;1.40;;
53549;SDS011;73079;52.914;-0.982;2023-11-18T06:55:27;1.30;;;1.20;;
53549;SDS011;73079;52.914;-0.982;2023-11-18T06:57:53;1.48;;;1.38;;
53549;SDS011;73079;52.914;-0.982;2023-11-18T07:00:23;1.52;;;1.20;;
53549;SDS011;73079;52.914;-0.982;2023-11-18T07:02:54;1.60;;;1.20;;
53549;SDS011;73079;52.914;-0.982;2023-11-18T07:05:20;2.45;;;1.48;;
53549;SDS011;73079;52.914;-0.982;2023-11-18T07:07:49;1.10;;;1.10;;
53549;SDS011;73079;52.914;-0.982;2023-11-18T07:10:15;2.08;;;1.10;;
53549;SDS011;73079;52.914;-0.982;2023-11-18T07:12:45;1.30;;;1.00;;
53549;SDS011;73079;52.914;-0.982;2023-11-18T07:15:13;1.95;;;0.85;;
53549;SDS011;73079;52.914;-0.982;2023-11-18T07:17:40;1.13;;;1.00;;
53549;SDS011;73079;52.914;-0.982;2023-11-18T07:20:06;0.98;;;0.98;;
53549;SDS011;73079;52.914;-0.982;2023-11-18T07:22:33;1.00;;;1.00;;
53549;SDS011;73079;52.914;-0.982;2023-11-18T07:24:59;5.25;;;1.40;;
53549;SDS011;73079;52.914;-0.982;2023-11-18T07:27:26;1.45;;;1.10;;
53549;SDS011;73079;52.914;-0.982;2023-11-18T07:29:52;0.90;;;0.90;;
53549;SDS011;73079;52.914;-0.982;2023-11-18T07:32:18;1.67;;;1.27;;
53549;SDS011;73079;52.914;-0.982;2023-11-18T07:34:46;0.80;;;0.80;;
53549;SDS011;73079;52.914;-0.982;2023-11-18T07:37:12;1.10;;;1.00;;
53549;SDS011;73079;52.914;-0.982;2023-11-18T07:39:38;1.13;;;1.02;;
53549;SDS011;73079;52.914;-0.982;2023-11-18T07:42:10;0.70;;;0.70;;
53549;SDS011;73079;52.914;-0.982;2023-11-18T07:44:37;1.35;;;0.90;;
53549;SDS011;73079;52.914;-0.982;2023-11-18T07:47:04;0.98;;;0.98;;
53549;SDS011;73079;52.914;-0.982;2023-11-18T07:49:33;2.22;;;0.90;;
53549;SDS011;73079;52.914;-0.982;2023-11-18T07:52:02;2.58;;;1.05;;
53549;SDS011;73079;52.914;-0.982;2023-11-18T07:54:29;1.27;;;0.93;;
53549;SDS011;73079;52.914;-0.982;2023-11-18T07:56:55;0.88;;;0.88;;
53549;SDS011;73079;52.914;-0.982;2023-11-18T07:59:21;1.13;;;1.02;;
53549;SDS011;73079;52.914;-0.982;2023-11-18T08:01:49;1.10;;;1.10;;
53549;SDS011;73079;52.914;-0.982;2023-11-18T08:04:15;1.65;;;1.02;;
53549;SDS011;73079;52.914;-0.982;2023-11-18T08:06:42;1.17;;;1.05;;
53549;SDS011;73079;52.914;-0.982;2023-11-18T08:09:10;1.30;;;1.20;;
53549;SDS011;73079;52.914;-0.982;2023-11-18T08:11:38;1.50;;;1.40;;
53549;SDS011;73079;52.914;-0.982;2023-11-18T08:14:06;1.58;;;1.48;;
53549;SDS011;73079;52.914;-0.982;2023-11-18T08:16:33;1.90;;;1.70;;
53549;SDS011;73079;52.914;-0.982;2023-11-18T08:18:59;1.88;;;1.77;;
53549;SDS011;73079;52.914;-0.982;2023-11-18T08:21:25;2.55;;;2.00;;
53549;SDS011;73079;52.914;-0.982;2023-11-18T08:23:53;2.03;;;1.92;;
53549;SDS011;73079;52.914;-0.982;2023-11-18T08:26:20;3.92;;;1.92;;
53549;SDS011;73079;52.914;-0.982;2023-11-18T08:28:46;1.70;;;1.60;;
53549;SDS011;73079;52.914;-0.982;2023-11-18T08:31:12;1.70;;;1.60;;
53549;SDS011;73079;52.914;-0.982;2023-11-18T08:33:41;1.95;;;1.75;;
53549;SDS011;73079;52.914;-0.982;2023-11-18T08:36:07;1.67;;;1.58;;
53549;SDS011;73079;52.914;-0.982;2023-11-18T08:38:33;2.97;;;2.13;;
53549;SDS011;73079;52.914;-0.982;2023-11-18T08:41:00;2.70;;;1.80;;
53549;SDS011;73079;52.914;-0.982;2023-11-18T08:43:29;3.03;;;1.75;;
53549;SDS011;73079;52.914;-0.982;2023-11-18T08:46:07;2.15;;;1.95;;
53549;SDS011;73079;52.914;-0.982;2023-11-18T08:48:33;3.58;;;1.90;;
53549;SDS011;73079;52.914;-0.982;2023-11-18T08:51:03;2.40;;;2.10;;
53549;SDS011;73079;52.914;-0.982;2023-11-18T08:53:33;3.83;;;2.63;;
53549;SDS011;73079;52.914;-0.982;2023-11-18T08:56:07;2.93;;;2.57;;
53549;SDS011;73079;52.914;-0.982;2023-11-18T08:58:41;6.50;;;2.97;;
53549;SDS011;73079;52.914;-0.982;2023-11-18T09:01:07;4.50;;;3.08;;
53549;SDS011;73079;52.914;-0.982;2023-11-18T09:03:39;5.03;;;3.30;;
53549;SDS011;73079;52.914;-0.982;2023-11-18T09:06:13;4.22;;;3.35;;
53549;SDS011;73079;52.914;-0.982;2023-11-18T09:08:43;3.92;;;3.35;;
53549;SDS011;73079;52.914;-0.982;2023-11-18T09:11:10;6.68;;;4.75;;
53549;SDS011;73079;52.914;-0.982;2023-11-18T09:13:42;5.13;;;4.47;;
53549;SDS011;73079;52.914;-0.982;2023-11-18T09:16:10;4.90;;;4.47;;
53549;SDS011;73079;52.914;-0.982;2023-11-18T09:18:37;5.43;;;4.90;;
53549;SDS011;73079;52.914;-0.982;2023-11-18T09:21:04;6.20;;;5.22;;
53549;SDS011;73079;52.914;-0.982;2023-11-18T09:23:31;7.53;;;5.15;;
53549;SDS011;73079;52.914;-0.982;2023-11-18T09:25:59;4.55;;;4.05;;
53549;SDS011;73079;52.914;-0.982;2023-11-18T09:28:26;6.07;;;4.78;;
53549;SDS011;73079;52.914;-0.982;2023-11-18T09:30:57;8.13;;;5.30;;
53549;SDS011;73079;52.914;-0.982;2023-11-18T09:33:23;7.10;;;4.80;;
53549;SDS011;73079;52.914;-0.982;2023-11-18T09:35:59;6.40;;;4.55;;
53549;SDS011;73079;52.914;-0.982;2023-11-18T09:38:26;6.22;;;5.63;;
53549;SDS011;73079;52.914;-0.982;2023-11-18T09:40:55;8.73;;;6.65;;
53549;SDS011;73079;52.914;-0.982;2023-11-18T09:43:23;8.02;;;5.88;;
53549;SDS011;73079;52.914;-0.982;2023-11-18T09:45:54;6.72;;;6.07;;
53549;SDS011;73079;52.914;-0.982;2023-11-18T09:48:22;6.65;;;6.05;;
53549;SDS011;73079;52.914;-0.982;2023-11-18T09:50:51;6.95;;;5.35;;
53549;SDS011;73079;52.914;-0.982;2023-11-18T09:53:19;5.63;;;4.75;;
53549;SDS011;73079;52.914;-0.982;2023-11-18T09:55:47;5.93;;;5.30;;
53549;SDS011;73079;52.914;-0.982;2023-11-18T09:58:20;5.30;;;4.80;;
53549;SDS011;73079;52.914;-0.982;2023-11-18T10:00:49;6.80;;;5.45;;
53549;SDS011;73079;52.914;-0.982;2023-11-18T10:03:23;5.80;;;5.27;;
53549;SDS011;73079;52.914;-0.982;2023-11-18T10:05:50;6.35;;;5.20;;
53549;SDS011;73079;52.914;-0.982;2023-11-18T10:08:20;5.18;;;4.40;;
53549;SDS011;73079;52.914;-0.982;2023-11-18T10:10:51;5.32;;;4.57;;
53549;SDS011;73079;52.914;-0.982;2023-11-18T10:13:30;5.68;;;4.55;;
53549;SDS011;73079;52.914;-0.982;2023-11-18T10:16:00;6.07;;;4.20;;
53549;SDS011;73079;52.914;-0.982;2023-11-18T10:18:31;4.35;;;3.95;;
53549;SDS011;73079;52.914;-0.982;2023-11-18T10:21:02;5.35;;;4.45;;
53549;SDS011;73079;52.914;-0.982;2023-11-18T10:23:36;4.78;;;4.28;;
53549;SDS011;73079;52.914;-0.982;2023-11-18T10:26:03;5.40;;;4.22;;
53549;SDS011;73079;52.914;-0.982;2023-11-18T10:28:30;4.30;;;3.58;;
53549;SDS011;73079;52.914;-0.982;2023-11-18T10:31:02;5.13;;;3.47;;
53549;SDS011;73079;52.914;-0.982;2023-11-18T10:33:34;6.35;;;3.92;;
53549;SDS011;73079;52.914;-0.982;2023-11-18T10:36:02;5.43;;;3.58;;
53549;SDS011;73079;52.914;-0.982;2023-11-18T10:38:30;4.20;;;3.47;;
53549;SDS011;73079;52.914;-0.982;2023-11-18T10:40:57;5.47;;;3.58;;
53549;SDS011;73079;52.914;-0.982;2023-11-18T10:43:26;3.83;;;3.40;;
53549;SDS011;73079;52.914;-0.982;2023-11-18T10:46:04;5.28;;;3.40;;
53549;SDS011;73079;52.914;-0.982;2023-11-18T10:48:39;4.13;;;2.60;;
53549;SDS011;73079;52.914;-0.982;2023-11-18T10:51:08;5.88;;;3.67;;
53549;SDS011;73079;52.914;-0.982;2023-11-18T10:53:36;4.75;;;3.55;;
53549;SDS011;73079;52.914;-0.982;2023-11-18T10:56:03;5.35;;;3.83;;
53549;SDS011;73079;52.914;-0.982;2023-11-18T10:58:35;4.90;;;3.50;;
53549;SDS011;73079;52.914;-0.982;2023-11-18T11:01:01;3.72;;;3.17;;
53549;SDS011;73079;52.914;-0.982;2023-11-18T11:03:28;4.15;;;2.50;;
53549;SDS011;73079;52.914;-0.982;2023-11-18T11:06:00;2.97;;;2.40;;
53549;SDS011;73079;52.914;-0.982;2023-11-18T11:08:42;4.45;;;2.88;;
53549;SDS011;73079;52.914;-0.982;2023-11-18T11:11:08;3.92;;;2.63;;
53549;SDS011;73079;52.914;-0.982;2023-11-18T11:13:41;3.92;;;2.90;;
53549;SDS011;73079;52.914;-0.982;2023-11-18T11:16:10;3.90;;;2.75;;
53549;SDS011;73079;52.914;-0.982;2023-11-18T11:18:44;3.65;;;2.60;;
53549;SDS011;73079;52.914;-0.982;2023-11-18T11:21:21;3.95;;;2.92;;
53549;SDS011;73079;52.914;-0.982;2023-11-18T11:23:55;5.57;;;3.33;;
53549;SDS011;73079;52.914;-0.982;2023-11-18T11:26:28;4.07;;;2.88;;
53549;SDS011;73079;52.914;-0.982;2023-11-18T11:29:07;5.85;;;3.60;;
53549;SDS011;73079;52.914;-0.982;2023-11-18T11:31:44;4.25;;;3.13;;
53549;SDS011;73079;52.914;-0.982;2023-11-18T11:34:18;6.82;;;4.60;;
53549;SDS011;73079;52.914;-0.982;2023-11-18T11:36:52;7.67;;;4.63;;
53549;SDS011;73079;52.914;-0.982;2023-11-18T11:39:20;7.20;;;4.63;;
53549;SDS011;73079;52.914;-0.982;2023-11-18T11:41:56;5.80;;;3.65;;
53549;SDS011;73079;52.914;-0.982;2023-11-18T11:44:24;5.82;;;3.72;;
53549;SDS011;73079;52.914;-0.982;2023-11-18T11:46:54;5.28;;;3.00;;
53549;SDS011;73079;52.914;-0.982;2023-11-18T11:49:22;3.80;;;2.22;;
53549;SDS011;73079;52.914;-0.982;2023-11-18T11:52:02;4.20;;;2.80;;
53549;SDS011;73079;52.914;-0.982;2023-11-18T11:54:34;3.80;;;2.53;;
53549;SDS011;73079;52.914;-0.982;2023-11-18T11:57:05;2.97;;;2.38;;
53549;SDS011;73079;52.914;-0.982;2023-11-18T11:59:34;3.50;;;2.10;;
53549;SDS011;73079;52.914;-0.982;2023-11-18T12:02:05;5.03;;;2.13;;
53549;SDS011;73079;52.914;-0.982;2023-11-18T12:04:33;3.20;;;1.70;;
53549;SDS011;73079;52.914;-0.982;2023-11-18T12:07:00;3.22;;;2.00;;
53549;SDS011;73079;52.914;-0.982;2023-11-18T12:09:29;2.65;;;1.60;;
53549;SDS011;73079;52.914;-0.982;2023-11-18T12:11:58;2.22;;;1.48;;
53549;SDS011;73079;52.914;-0.982;2023-11-18T12:14:25;4.72;;;2.25;;
53549;SDS011;73079;52.914;-0.982;2023-11-18T12:16:57;4.05;;;1.67;;
53549;SDS011;73079;52.914;-0.982;2023-11-18T12:19:33;2.08;;;1.70;;
53549;SDS011;73079;52.914;-0.982;2023-11-18T12:22:13;2.45;;;1.50;;
53549;SDS011;73079;52.914;-0.982;2023-11-18T12:24:44;3.28;;;1.67;;
53549;SDS011;73079;52.914;-0.982;2023-11-18T12:27:12;3.72;;;1.50;;
53549;SDS011;73079;52.914;-0.982;2023-11-18T12:29:42;3.03;;;1.55;;
53549;SDS011;73079;52.914;-0.982;2023-11-18T12:32:14;3.08;;;1.58;;
53549;SDS011;73079;52.914;-0.982;2023-11-18T12:35:22;3.92;;;1.73;;
53549;SDS011;73079;52.914;-0.982;2023-11-18T12:38:11;3.67;;;1.85;;
53549;SDS011;73079;52.914;-0.982;2023-11-18T12:41:15;7.07;;;1.60;;
53549;SDS011;73079;52.914;-0.982;2023-11-18T12:44:00;3.90;;;1.63;;
53549;SDS011;73079;52.914;-0.982;2023-11-18T12:46:49;4.03;;;1.55;;
53549;SDS011;73079;52.914;-0.982;2023-11-18T12:49:21;4.75;;;1.70;;
53549;SDS011;73079;52.914;-0.982;2023-11-18T12:51:53;6.47;;;1.40;;
53549;SDS011;73079;52.914;-0.982;2023-11-18T12:54:22;6.60;;;1.90;;
53549;SDS011;73079;52.914;-0.982;2023-11-18T12:56:53;4.82;;;1.40;;
53549;SDS011;73079;52.914;-0.982;2023-11-18T12:59:20;4.88;;;1.58;;
53549;SDS011;73079;52.914;-0.982;2023-11-18T13:01:47;5.32;;;1.70;;
53549;SDS011;73079;52.914;-0.982;2023-11-18T13:04:22;6.53;;;1.85;;
53549;SDS011;73079;52.914;-0.982;2023-11-18T13:06:49;4.85;;;1.50;;
53549;SDS011;73079;52.914;-0.982;2023-11-18T13:09:17;7.10;;;1.83;;
53549;SDS011;73079;52.914;-0.982;2023-11-18T13:11:54;5.28;;;1.65;;
53549;SDS011;73079;52.914;-0.982;2023-11-18T13:14:23;6.28;;;2.03;;
53549;SDS011;73079;52.914;-0.982;2023-11-18T13:16:51;4.93;;;1.40;;
53549;SDS011;73079;52.914;-0.982;2023-11-18T13:19:27;9.27;;;2.20;;
53549;SDS011;73079;52.914;-0.982;2023-11-18T13:21:57;14.38;;;2.35;;
53549;SDS011;73079;52.914;-0.982;2023-11-18T13:24:24;5.60;;;1.83;;
53549;SDS011;73079;52.914;-0.982;2023-11-18T13:26:50;8.90;;;1.95;;
53549;SDS011;73079;52.914;-0.982;2023-11-18T13:29:18;8.68;;;2.17;;
53549;SDS011;73079;52.914;-0.982;2023-11-18T13:31:46;4.40;;;1.60;;
53549;SDS011;73079;52.914;-0.982;2023-11-18T13:34:12;10.00;;;2.08;;
53549;SDS011;73079;52.914;-0.982;2023-11-18T13:36:39;8.27;;;2.05;;
53549;SDS011;73079;52.914;-0.982;2023-11-18T13:39:05;6.30;;;1.75;;
53549;SDS011;73079;52.914;-0.982;2023-11-18T13:41:32;9.45;;;2.17;;
53549;SDS011;73079;52.914;-0.982;2023-11-18T13:43:59;5.78;;;1.75;;
53549;SDS011;73079;52.914;-0.982;2023-11-18T13:46:27;7.88;;;2.17;;
53549;SDS011;73079;52.914;-0.982;2023-11-18T13:48:53;5.35;;;1.77;;
53549;SDS011;73079;52.914;-0.982;2023-11-18T13:51:19;8.73;;;1.60;;
53549;SDS011;73079;52.914;-0.982;2023-11-18T13:53:47;12.10;;;2.30;;
53549;SDS011;73079;52.914;-0.982;2023-11-18T13:56:13;8.43;;;1.83;;
53549;SDS011;73079;52.914;-0.982;2023-11-18T13:58:43;12.18;;;2.22;;
53549;SDS011;73079;52.914;-0.982;2023-11-18T14:01:11;9.93;;;2.45;;
53549;SDS011;73079;52.914;-0.982;2023-11-18T14:03:41;7.15;;;2.25;;
53549;SDS011;73079;52.914;-0.982;2023-11-18T14:06:09;7.20;;;2.40;;
53549;SDS011;73079;52.914;-0.982;2023-11-18T14:08:36;10.57;;;1.98;;
53549;SDS011;73079;52.914;-0.982;2023-11-18T14:11:02;8.25;;;2.00;;
53549;SDS011;73079;52.914;-0.982;2023-11-18T14:13:30;10.57;;;2.00;;
53549;SDS011;73079;52.914;-0.982;2023-11-18T14:15:56;8.27;;;2.50;;
53549;SDS011;73079;52.914;-0.982;2023-11-18T14:18:22;9.25;;;2.50;;
53549;SDS011;73079;52.914;-0.982;2023-11-18T14:20:50;16.63;;;3.30;;
53549;SDS011;73079;52.914;-0.982;2023-11-18T14:23:16;12.60;;;2.60;;
53549;SDS011;73079;52.914;-0.982;2023-11-18T14:25:44;12.13;;;2.70;;
53549;SDS011;73079;52.914;-0.982;2023-11-18T14:28:10;8.00;;;2.72;;
53549;SDS011;73079;52.914;-0.982;2023-11-18T14:30:36;10.00;;;2.60;;
53549;SDS011;73079;52.914;-0.982;2023-11-18T14:33:02;13.88;;;2.75;;
53549;SDS011;73079;52.914;-0.982;2023-11-18T14:35:32;9.18;;;3.20;;
53549;SDS011;73079;52.914;-0.982;2023-11-18T14:38:00;14.00;;;3.45;;
53549;SDS011;73079;52.914;-0.982;2023-11-18T14:40:27;12.95;;;3.25;;